Aeroporto :
LOGIN :

Iscrizione | Disclaimer

   EN    FR    IT 

 










Sommario :    VFR   VFR Marginale   IFR   IFR Intensivo   IFR Molto Intensivo
Visibilità : 
Base nubi : 
>= 8 km
>= 3000ft
5 / 8 km
1000 / 3000 ft
1500m / 5 km
500 / 1000 ft
800 / 1500m
200 / 500 ft
< 800m
< 200 ft
Simboli :   Temporali  Nebbia  Neve Forte  Precipitazioni Forti  Vento > 20 kt
SIGMETs :   Varie  Temporali  Ghiacco  Turbolenza  Onda orograficha  Ceneri Vulcaniche







- Altitudine del aeroporto : 55 ft
- Codice IATA : DSA
- Carte del aeroporto


EGCN - Robin Hood Doncaster Sheffield

ULTIMO METAR :
  • 121320Z 21011KT CAVOK 03/01 Q1007

METARs OBSOLETI :
  • 121250Z 18007KT CAVOK 03/01 Q1006
  • 121220Z 19007KT CAVOK 03/01 Q1007
  • 121150Z 19008KT CAVOK 03/01 Q1007
  • 121120Z 18006KT CAVOK 02/01 Q1007
  • 121050Z 18005KT CAVOK 01/M01 Q1007

TAF TAF EGCN
Valido dal 12 a 12 ore il 13 a 12 ore UTC


121105Z 1212/1312 27005KT 9999 FEW035
BECMG 1212/1216 21012KT
TEMPO 1219/1223 6000 -RADZ BKN010
PROB40
TEMPO 1220/1223 3000 RADZ BKN005
PROB40
TEMPO 1223/1306 3000 BR BKN005
PROB40
TEMPO 1306/1312 6000 BKN010
Nessun NOTAM noto per questo aeroporto.
1 SIGMET conosciuto per la FIR London (EGTT) :
 
Turbolenza severa
EGTT SIGMET 02 VALID 121100/121500 EGRR
EGTT LONDON FIR SEV TURB FCST WI N5100 W00754 - N5207 W00548 - N4929 W00441 - N4926 W00456 - N4856 W00729 - N5100 W00754 FL200/420 MOV E 05KT NC=



MetMap, La meteo Aeronautica in un colpo d'occhio ! - Copyright ORBIFLY Dicembre 2007 - Disclaimer

ORBIFLY MET'MAP TEAM :

Programmazione e sviluppo : Alexandra Zaïnal
Concezione e sviluppo : Baudouin d'Aumeries
Co-Programmazione e sviluppo : Marc-Olivier Méhu
Supporto tecnico e logistico : Manuel Goepfert
Aiuto per la traduzione : Arnaldo La Scala

Contatto : metmap@orbifly.com




FONTI E CREDITI :

   NOAA